SAEZ/EZE METAR and TAF weather

Enter ICAO airport designator
Station Type Date Time Source
SAEZ METAR 2019/04/20 22:00 UTC NOAA

SAEZ 202200Z 09004KT 9999 FEW035 SCT048 18/13 Q1015 NOSIG


Station Type Date Time Source
SAEZ Decoded METAR 2019/04/20 22:00 UTC NOAA

Ezeiza Aerodrome, Argentina (SAEZ) 34-49S 058-32W 20M
Apr 20, 2019 - 06:00 PM EDT / 2019.04.20 2200 UTC
Wind: from the E (090 degrees) at 5 MPH (4 KT):0
Visibility: greater than 7 mile(s):0
Sky conditions: partly cloudy
Temperature: 64 F (18 C)
Dew Point: 55 F (13 C)
Relative Humidity: 72%
Pressure (altimeter): 29.97 in. Hg (1015 hPa)
ob: SAEZ 202200Z 09004KT 9999 FEW035 SCT048 18/13 Q1015 NOSIG
cycle: 22

Station Type Date Time Source
SAEZ TAF 2019/04/20 18:09 UTC NOAA

TAF TAF SAEZ 201700Z 2018/2118 15010KT CAVOK TX23/2019Z TN12/2110Z
BECMG 2020/2101 15005KT PROB30 2109/2111 17003KT 5000 BR NSC
BECMG 2112/2114 17010KT CAVOK

Example: see airport list